Time;durP1;ratioP1;P1;durP2;ratioP2;P2;SDS_P1;SDS_P2;PMS_P1;PMS_P2;Temp;Humidity;BMP_temperature;BMP_pressure;BME280_temperature;BME280_humidity;BME280_pressure;Samples;Min_cycle;Max_cycle;Signal;HPM_P1;HPM_P2
2023/03/14 00:01:46;;;;;;;0.10;0.10;;;;;;;;;;5015273;28;20312;-76
2023/03/14 00:04:13;;;;;;;0.10;0.10;;;;;;;;;;5025541;28;20528;-76
2023/03/14 00:06:39;;;;;;;0.10;0.10;;;;;;;;;;5015175;28;20243;-75
2023/03/14 00:09:05;;;;;;;0.47;0.47;;;;;;;;;;5025508;28;20201;-76
2023/03/14 00:11:32;;;;;;;0.10;0.10;;;;;;;;;;5014992;28;20254;-76
2023/03/14 00:14:00;;;;;;;0.10;0.10;;;;;;;;;;5025639;28;20608;-76
2023/03/14 00:16:27;;;;;;;0.83;0.83;;;;;;;;;;5015207;28;20264;-75
2023/03/14 00:18:53;;;;;;;0.10;0.10;;;;;;;;;;5025463;28;20266;-76
2023/03/14 00:21:20;;;;;;;0.10;0.10;;;;;;;;;;5014824;28;20245;-75
2023/03/14 00:23:46;;;;;;;0.10;0.10;;;;;;;;;;5025394;28;20238;-75
2023/03/14 00:26:13;;;;;;;0.10;0.10;;;;;;;;;;5015095;28;20479;-76
2023/03/14 00:28:40;;;;;;;0.10;0.10;;;;;;;;;;5025162;28;20201;-75
2023/03/14 00:31:09;;;;;;;0.10;0.10;;;;;;;;;;5014877;28;20261;-75
2023/03/14 00:33:35;;;;;;;0.10;0.10;;;;;;;;;;5024804;28;20229;-75
2023/03/14 00:36:04;;;;;;;0.10;0.10;;;;;;;;;;5014931;28;20308;-75
2023/03/14 00:38:31;;;;;;;0.10;0.10;;;;;;;;;;5024908;28;20229;-75
2023/03/14 00:40:57;;;;;;;0.10;0.10;;;;;;;;;;5014727;28;20304;-76
2023/03/14 00:43:24;;;;;;;0.10;0.10;;;;;;;;;;5024640;28;20198;-76
2023/03/14 00:45:50;;;;;;;0.10;0.10;;;;;;;;;;5014872;28;20245;-76
2023/03/14 00:48:18;;;;;;;0.10;0.10;;;;;;;;;;5024353;28;20201;-76
2023/03/14 00:50:45;;;;;;;0.10;0.10;;;;;;;;;;5014672;28;20243;-75
2023/03/14 00:53:11;;;;;;;0.10;0.10;;;;;;;;;;5024232;28;20206;-76
2023/03/14 00:55:38;;;;;;;0.10;0.10;;;;;;;;;;5014735;28;20508;-76
2023/03/14 00:58:04;;;;;;;0.10;0.10;;;;;;;;;;5024289;28;20214;-75
2023/03/14 01:00:31;;;;;;;0.10;0.10;;;;;;;;;;5013848;28;20264;-76
2023/03/14 01:02:57;;;;;;;0.10;0.10;;;;;;;;;;5024185;28;20205;-76
2023/03/14 01:05:25;;;;;;;0.10;0.10;;;;;;;;;;5014706;28;20197;-76
2023/03/14 01:07:52;;;;;;;0.10;0.10;;;;;;;;;;5024076;28;20210;-76
2023/03/14 01:10:18;;;;;;;0.10;0.10;;;;;;;;;;5014504;28;20210;-76
2023/03/14 01:12:45;;;;;;;0.10;0.10;;;;;;;;;;5023888;28;20234;-76
2023/03/14 01:15:11;;;;;;;0.53;0.20;;;;;;;;;;5014578;28;20237;-76
2023/03/14 01:17:39;;;;;;;0.10;0.10;;;;;;;;;;5023799;28;20213;-76
2023/03/14 01:20:08;;;;;;;0.10;0.10;;;;;;;;;;5024362;28;20293;-76
2023/03/14 01:22:38;;;;;;;0.10;0.10;;;;;;;;;;4997347;28;20210;-76
2023/03/14 01:25:05;;;;;;;0.40;0.40;;;;;;;;;;5024353;28;20249;-76
2023/03/14 01:27:31;;;;;;;0.10;0.10;;;;;;;;;;5013643;28;20260;-76
2023/03/14 01:29:58;;;;;;;0.10;0.10;;;;;;;;;;5024593;28;20401;-76
2023/03/14 01:32:25;;;;;;;0.20;0.20;;;;;;;;;;5013434;28;20261;-76
2023/03/14 01:34:51;;;;;;;0.10;0.10;;;;;;;;;;5024235;28;20206;-76
2023/03/14 01:37:18;;;;;;;0.10;0.10;;;;;;;;;;5013352;28;20313;-76
2023/03/14 01:39:47;;;;;;;0.10;0.10;;;;;;;;;;5024024;28;20264;-76
2023/03/14 01:42:13;;;;;;;0.10;0.10;;;;;;;;;;5013250;28;20241;-76
2023/03/14 01:44:50;;;;;;;0.10;0.10;;;;;;;;;;5024340;28;20237;-76
2023/03/14 01:47:16;;;;;;;0.10;0.10;;;;;;;;;;5013165;28;20491;-76
2023/03/14 01:49:43;;;;;;;0.10;0.10;;;;;;;;;;5024317;28;20396;-76
2023/03/14 01:52:11;;;;;;;0.10;0.10;;;;;;;;;;5012912;28;20259;-76
2023/03/14 01:54:39;;;;;;;0.10;0.10;;;;;;;;;;5023888;28;20214;-76
2023/03/14 01:57:09;;;;;;;0.10;0.10;;;;;;;;;;5013019;28;20241;-76
2023/03/14 01:59:37;;;;;;;0.10;0.10;;;;;;;;;;5023645;28;20225;-76
2023/03/14 02:02:07;;;;;;;0.10;0.10;;;;;;;;;;5013049;28;20490;-76
2023/03/14 02:04:35;;;;;;;0.10;0.10;;;;;;;;;;5024110;28;20211;-76
2023/03/14 02:07:03;;;;;;;0.10;0.10;;;;;;;;;;5012825;28;20483;-75
2023/03/14 02:09:31;;;;;;;0.10;0.10;;;;;;;;;;5024018;28;20280;-75
2023/03/14 02:11:58;;;;;;;0.10;0.10;;;;;;;;;;5012678;28;20246;-75
2023/03/14 02:14:30;;;;;;;0.10;0.10;;;;;;;;;;5023637;28;20211;-75
2023/03/14 02:16:56;;;;;;;0.10;0.10;;;;;;;;;;5012686;28;20242;-75
2023/03/14 02:19:27;;;;;;;0.10;0.10;;;;;;;;;;5023502;28;20293;-75
2023/03/14 02:21:57;;;;;;;0.10;0.10;;;;;;;;;;5013057;28;20241;-76
2023/03/14 02:24:28;;;;;;;0.10;0.10;;;;;;;;;;5023590;28;20260;-75
2023/03/14 02:27:03;;;;;;;0.10;0.10;;;;;;;;;;5012949;28;20305;-75
2023/03/14 02:29:30;;;;;;;0.10;0.10;;;;;;;;;;5023469;28;20222;-75
2023/03/14 02:31:56;;;;;;;1.83;1.63;;;;;;;;;;5012677;28;20270;-75
2023/03/14 02:34:23;;;;;;;0.10;0.10;;;;;;;;;;5023491;28;20510;-75
2023/03/14 02:36:49;;;;;;;0.10;0.10;;;;;;;;;;5012696;28;20245;-75
2023/03/14 02:39:20;;;;;;;0.10;0.10;;;;;;;;;;5023496;28;20485;-75
2023/03/14 02:41:48;;;;;;;0.10;0.10;;;;;;;;;;5012892;28;20488;-75
2023/03/14 02:44:16;;;;;;;0.87;0.83;;;;;;;;;;5023184;28;20243;-75
2023/03/14 02:46:43;;;;;;;0.10;0.10;;;;;;;;;;5012773;28;20241;-76
2023/03/14 02:49:11;;;;;;;0.10;0.10;;;;;;;;;;5023486;28;20353;-75
2023/03/14 02:51:37;;;;;;;0.10;0.10;;;;;;;;;;5012875;28;20248;-75
2023/03/14 02:54:04;;;;;;;0.10;0.10;;;;;;;;;;5023481;28;20456;-76
2023/03/14 02:56:30;;;;;;;0.10;0.10;;;;;;;;;;5012832;28;20595;-75
2023/03/14 02:58:57;;;;;;;0.10;0.10;;;;;;;;;;5023040;28;20437;-75
2023/03/14 03:01:25;;;;;;;0.10;0.10;;;;;;;;;;5012928;28;20598;-75
2023/03/14 03:03:51;;;;;;;0.10;0.10;;;;;;;;;;5022992;28;20228;-75
2023/03/14 03:06:18;;;;;;;0.10;0.10;;;;;;;;;;5012770;28;20243;-75
2023/03/14 03:08:44;;;;;;;0.10;0.10;;;;;;;;;;5023202;28;20276;-75
2023/03/14 03:11:10;;;;;;;0.10;0.10;;;;;;;;;;5012707;28;20317;-76
2023/03/14 03:13:37;;;;;;;0.10;0.10;;;;;;;;;;5023005;28;20206;-75
2023/03/14 03:16:03;;;;;;;0.10;0.10;;;;;;;;;;5012724;28;20253;-75
2023/03/14 03:18:31;;;;;;;0.10;0.10;;;;;;;;;;5022642;28;20273;-75
2023/03/14 03:21:00;;;;;;;0.10;0.10;;;;;;;;;;5012693;28;20491;-76
2023/03/14 03:23:26;;;;;;;0.10;0.10;;;;;;;;;;5023668;28;20272;-76
2023/03/14 03:25:53;;;;;;;0.10;0.10;;;;;;;;;;5016516;28;20593;-76
2023/03/14 03:28:19;;;;;;;0.10;0.10;;;;;;;;;;5026009;28;20213;-76
2023/03/14 03:30:46;;;;;;;0.10;0.10;;;;;;;;;;5016162;28;20418;-76
2023/03/14 03:33:12;;;;;;;0.10;0.10;;;;;;;;;;5026125;28;20285;-76
2023/03/14 03:35:47;;;;;;;0.10;0.10;;;;;;;;;;5016297;28;20300;-75
2023/03/14 03:38:13;;;;;;;0.10;0.10;;;;;;;;;;5025599;28;20204;-75
2023/03/14 03:40:40;;;;;;;0.50;0.50;;;;;;;;;;5016035;28;20268;-76
2023/03/14 03:43:07;;;;;;;0.10;0.10;;;;;;;;;;5025873;28;20228;-76
2023/03/14 03:45:33;;;;;;;0.10;0.10;;;;;;;;;;5016069;28;20241;-76
2023/03/14 03:47:59;;;;;;;0.10;0.10;;;;;;;;;;5025561;28;20528;-76
2023/03/14 03:50:26;;;;;;;0.10;0.10;;;;;;;;;;5016225;28;20201;-76
2023/03/14 03:52:53;;;;;;;0.10;0.10;;;;;;;;;;5025508;28;20456;-76
2023/03/14 03:55:20;;;;;;;0.10;0.10;;;;;;;;;;5015916;28;20225;-76
2023/03/14 03:57:46;;;;;;;0.10;0.10;;;;;;;;;;5025411;28;20407;-77
2023/03/14 04:00:13;;;;;;;0.10;0.10;;;;;;;;;;5015862;28;20234;-76
2023/03/14 04:02:39;;;;;;;0.10;0.10;;;;;;;;;;5025203;28;20233;-76
2023/03/14 04:05:06;;;;;;;0.10;0.10;;;;;;;;;;5026190;28;20241;-75
2023/03/14 04:07:33;;;;;;;0.10;0.10;;;;;;;;;;5015155;28;20248;-76
2023/03/14 04:10:00;;;;;;;0.10;0.10;;;;;;;;;;5025794;28;20274;-76
2023/03/14 04:12:27;;;;;;;0.10;0.10;;;;;;;;;;5014809;28;20245;-76
2023/03/14 04:14:53;;;;;;;0.10;0.10;;;;;;;;;;5025604;28;20208;-75
2023/03/14 04:17:20;;;;;;;0.10;0.10;;;;;;;;;;5014799;28;20261;-76
2023/03/14 04:19:49;;;;;;;0.10;0.10;;;;;;;;;;5025402;28;20229;-76
2023/03/14 04:22:15;;;;;;;0.10;0.10;;;;;;;;;;5014857;28;20241;-76
2023/03/14 04:24:42;;;;;;;0.10;0.10;;;;;;;;;;5025823;28;20544;-76
2023/03/14 04:27:09;;;;;;;0.10;0.10;;;;;;;;;;5014503;28;20592;-76
2023/03/14 04:29:36;;;;;;;0.10;0.10;;;;;;;;;;5025442;28;20273;-76
2023/03/14 04:32:02;;;;;;;0.10;0.10;;;;;;;;;;5014651;28;20257;-75
2023/03/14 04:34:28;;;;;;;0.10;0.10;;;;;;;;;;5025285;28;20206;-76
2023/03/14 04:36:55;;;;;;;0.10;0.10;;;;;;;;;;5014357;28;20240;-75
2023/03/14 04:39:21;;;;;;;0.10;0.10;;;;;;;;;;5025408;28;20240;-76
2023/03/14 04:41:48;;;;;;;0.10;0.10;;;;;;;;;;5014491;28;20316;-76
2023/03/14 04:44:15;;;;;;;0.10;0.10;;;;;;;;;;5024766;28;20215;-76
2023/03/14 04:46:42;;;;;;;0.10;0.10;;;;;;;;;;5014378;28;20242;-76
2023/03/14 04:49:08;;;;;;;0.10;0.10;;;;;;;;;;5024910;28;20215;-75
2023/03/14 04:51:34;;;;;;;0.10;0.10;;;;;;;;;;5014359;28;20308;-76
2023/03/14 04:54:01;;;;;;;0.10;0.10;;;;;;;;;;5024583;28;20264;-75
2023/03/14 04:56:27;;;;;;;0.10;0.10;;;;;;;;;;5014263;28;20564;-75
2023/03/14 04:58:53;;;;;;;0.10;0.10;;;;;;;;;;5024565;28;20284;-76
2023/03/14 05:01:21;;;;;;;0.10;0.10;;;;;;;;;;5014237;28;20304;-76
2023/03/14 05:03:48;;;;;;;0.10;0.10;;;;;;;;;;5024243;28;20277;-75
2023/03/14 05:06:14;;;;;;;0.10;0.10;;;;;;;;;;5014158;28;20596;-75
2023/03/14 05:08:40;;;;;;;0.10;0.10;;;;;;;;;;5024350;28;20236;-75
2023/03/14 05:11:07;;;;;;;0.10;0.10;;;;;;;;;;5014135;28;20305;-75
2023/03/14 05:13:33;;;;;;;0.10;0.10;;;;;;;;;;5024365;28;20272;-76
2023/03/14 05:16:06;;;;;;;0.10;0.10;;;;;;;;;;5014277;28;20245;-76
2023/03/14 05:18:34;;;;;;;0.43;0.40;;;;;;;;;;5024253;28;20238;-76
2023/03/14 05:21:01;;;;;;;0.10;0.10;;;;;;;;;;5013936;28;20264;-75
2023/03/14 05:23:27;;;;;;;0.10;0.10;;;;;;;;;;5023897;28;20273;-76
2023/03/14 05:25:54;;;;;;;0.10;0.10;;;;;;;;;;5014140;28;20307;-75
2023/03/14 05:28:20;;;;;;;0.10;0.10;;;;;;;;;;5023752;28;20408;-75
2023/03/14 05:30:47;;;;;;;0.27;0.27;;;;;;;;;;5014135;28;20464;-76
2023/03/14 05:33:13;;;;;;;0.10;0.10;;;;;;;;;;5023580;28;20209;-75
2023/03/14 05:35:41;;;;;;;0.10;0.10;;;;;;;;;;5013970;28;20241;-75
2023/03/14 05:38:07;;;;;;;0.10;0.10;;;;;;;;;;5023449;28;20209;-75
2023/03/14 05:40:34;;;;;;;0.10;0.10;;;;;;;;;;5013887;28;20272;-75
2023/03/14 05:43:01;;;;;;;0.10;0.10;;;;;;;;;;5023308;28;20271;-76
2023/03/14 05:45:27;;;;;;;0.10;0.10;;;;;;;;;;5014040;28;20246;-75
2023/03/14 05:47:54;;;;;;;0.10;0.10;;;;;;;;;;5022940;28;20202;-75
2023/03/14 05:50:20;;;;;;;0.10;0.10;;;;;;;;;;5013977;28;20279;-75
2023/03/14 05:52:48;;;;;;;0.10;0.10;;;;;;;;;;5022933;28;20538;-76
2023/03/14 05:55:14;;;;;;;0.10;0.10;;;;;;;;;;5013811;28;20240;-77
2023/03/14 05:57:41;;;;;;;0.10;0.10;;;;;;;;;;5022816;28;20266;-76
2023/03/14 06:00:08;;;;;;;0.10;0.10;;;;;;;;;;5023647;28;20230;-76
2023/03/14 06:02:34;;;;;;;0.10;0.10;;;;;;;;;;5012976;28;20246;-76
2023/03/14 06:05:01;;;;;;;0.73;0.73;;;;;;;;;;5024272;28;20296;-76
2023/03/14 06:07:27;;;;;;;0.10;0.10;;;;;;;;;;5012737;28;20327;-76
2023/03/14 06:09:55;;;;;;;0.10;0.10;;;;;;;;;;5024297;28;20229;-76
2023/03/14 06:12:21;;;;;;;0.10;0.10;;;;;;;;;;5012713;28;20257;-76
2023/03/14 06:14:48;;;;;;;0.10;0.10;;;;;;;;;;5023987;28;20236;-76
2023/03/14 06:17:14;;;;;;;0.10;0.10;;;;;;;;;;5012672;28;20352;-76
2023/03/14 06:19:40;;;;;;;0.10;0.10;;;;;;;;;;5024069;28;20209;-76
2023/03/14 06:22:07;;;;;;;0.10;0.10;;;;;;;;;;5012635;28;20302;-76
2023/03/14 06:24:33;;;;;;;0.10;0.10;;;;;;;;;;5023917;28;20221;-76
2023/03/14 06:27:02;;;;;;;0.10;0.10;;;;;;;;;;5012643;28;20312;-75
2023/03/14 06:29:29;;;;;;;0.10;0.10;;;;;;;;;;5023880;28;20202;-76
2023/03/14 06:31:55;;;;;;;0.10;0.10;;;;;;;;;;5012682;28;20256;-76
2023/03/14 06:34:22;;;;;;;0.10;0.10;;;;;;;;;;5023637;28;20269;-76
2023/03/14 06:36:48;;;;;;;0.10;0.10;;;;;;;;;;5012864;28;20474;-75
2023/03/14 06:39:14;;;;;;;0.10;0.10;;;;;;;;;;5023760;28;20505;-76
2023/03/14 06:41:41;;;;;;;0.10;0.10;;;;;;;;;;5013019;28;20328;-78
2023/03/14 06:44:09;;;;;;;0.10;0.10;;;;;;;;;;5023579;28;20445;-76
2023/03/14 06:46:35;;;;;;;0.10;0.10;;;;;;;;;;5012873;28;20480;-76
2023/03/14 06:49:02;;;;;;;0.10;0.10;;;;;;;;;;5023523;28;20304;-78
2023/03/14 06:51:28;;;;;;;0.10;0.10;;;;;;;;;;5013107;28;20249;-77
2023/03/14 06:53:55;;;;;;;0.10;0.10;;;;;;;;;;5022828;28;20232;-77
2023/03/14 06:56:21;;;;;;;0.10;0.10;;;;;;;;;;5012845;28;20237;-78
2023/03/14 06:58:51;;;;;;;0.10;0.10;;;;;;;;;;5024766;28;20233;-80
2023/03/14 07:01:24;;;;;;;0.10;0.10;;;;;;;;;;5016331;28;20245;-76
2023/03/14 07:03:51;;;;;;;0.10;0.10;;;;;;;;;;5026963;28;20450;-82
2023/03/14 07:06:18;;;;;;;0.10;0.10;;;;;;;;;;5017796;28;20628;-77
2023/03/14 07:08:45;;;;;;;0.10;0.10;;;;;;;;;;5027411;28;20421;-81
2023/03/14 07:11:12;;;;;;;0.20;0.20;;;;;;;;;;5017741;28;20241;-78
2023/03/14 07:13:38;;;;;;;0.30;0.30;;;;;;;;;;5027271;28;20197;-76
2023/03/14 07:16:05;;;;;;;0.10;0.10;;;;;;;;;;5016648;28;20275;-76
2023/03/14 07:18:33;;;;;;;0.10;0.10;;;;;;;;;;5026979;28;20257;-76
2023/03/14 07:20:59;;;;;;;0.10;0.10;;;;;;;;;;5016693;28;20238;-77
2023/03/14 07:23:26;;;;;;;0.10;0.10;;;;;;;;;;5026199;28;20303;-77
2023/03/14 07:25:53;;;;;;;0.10;0.10;;;;;;;;;;5016497;28;20241;-77
2023/03/14 07:28:20;;;;;;;0.20;0.20;;;;;;;;;;5025977;28;20392;-77
2023/03/14 07:30:46;;;;;;;0.10;0.10;;;;;;;;;;5016235;28;20260;-77
2023/03/14 07:33:13;;;;;;;0.10;0.10;;;;;;;;;;5026114;28;20205;-77
2023/03/14 07:35:41;;;;;;;0.10;0.10;;;;;;;;;;5016275;28;20261;-77
2023/03/14 07:38:07;;;;;;;0.10;0.10;;;;;;;;;;5025639;28;20218;-79
2023/03/14 07:40:33;;;;;;;0.10;0.10;;;;;;;;;;5016339;28;20443;-76
2023/03/14 07:43:00;;;;;;;0.10;0.10;;;;;;;;;;5025690;28;20273;-76
2023/03/14 07:45:26;;;;;;;0.10;0.10;;;;;;;;;;5016054;28;20229;-78
2023/03/14 07:47:57;;;;;;;0.10;0.10;;;;;;;;;;5025229;28;20270;-78
2023/03/14 07:50:23;;;;;;;0.10;0.10;;;;;;;;;;5016134;28;20432;-79
2023/03/14 07:52:51;;;;;;;0.10;0.10;;;;;;;;;;5025172;28;20206;-77
2023/03/14 07:55:17;;;;;;;0.10;0.10;;;;;;;;;;5016201;28;20229;-79
2023/03/14 07:57:46;;;;;;;0.10;0.10;;;;;;;;;;5025334;28;20187;-83
2023/03/14 08:00:13;;;;;;;0.10;0.10;;;;;;;;;;5016718;28;20217;-79
2023/03/14 08:02:40;;;;;;;0.10;0.10;;;;;;;;;;5025101;28;20197;-78
2023/03/14 08:05:07;;;;;;;0.10;0.10;;;;;;;;;;5026158;28;20211;-78
2023/03/14 08:07:33;;;;;;;0.10;0.10;;;;;;;;;;4998426;28;20213;-77
2023/03/14 08:10:01;;;;;;;0.10;0.10;;;;;;;;;;5025443;28;20206;-77
2023/03/14 08:12:27;;;;;;;0.10;0.10;;;;;;;;;;5014833;28;20437;-78
2023/03/14 08:14:54;;;;;;;0.10;0.10;;;;;;;;;;5025960;28;20206;-80
2023/03/14 08:17:20;;;;;;;0.10;0.10;;;;;;;;;;5015072;28;20251;-79
2023/03/14 08:19:47;;;;;;;0.10;0.10;;;;;;;;;;5025548;28;20214;-79
2023/03/14 08:22:13;;;;;;;0.10;0.10;;;;;;;;;;5014388;28;20249;-79
2023/03/14 08:24:40;;;;;;;0.10;0.10;;;;;;;;;;5026137;28;20199;-80
2023/03/14 08:27:08;;;;;;;0.10;0.10;;;;;;;;;;5014927;28;20260;-80
2023/03/14 08:29:35;;;;;;;0.10;0.10;;;;;;;;;;5025609;28;20271;-80
2023/03/14 08:32:01;;;;;;;0.10;0.10;;;;;;;;;;5014624;28;20254;-79
2023/03/14 08:34:31;;;;;;;0.37;0.37;;;;;;;;;;5026036;28;20399;-80
2023/03/14 08:36:57;;;;;;;0.10;0.10;;;;;;;;;;5014634;28;20273;-80
2023/03/14 08:39:24;;;;;;;0.10;0.10;;;;;;;;;;5025728;28;20397;-80
2023/03/14 08:41:50;;;;;;;0.10;0.10;;;;;;;;;;5014804;28;20247;-79
2023/03/14 08:44:18;;;;;;;0.10;0.10;;;;;;;;;;5025974;28;20248;-81
2023/03/14 08:46:45;;;;;;;0.10;0.10;;;;;;;;;;5014886;28;20246;-78
2023/03/14 08:49:11;;;;;;;0.10;0.10;;;;;;;;;;5025380;28;20207;-79
2023/03/14 08:51:37;;;;;;;0.10;0.10;;;;;;;;;;5014979;28;20242;-79
2023/03/14 08:54:04;;;;;;;0.17;0.17;;;;;;;;;;5024733;28;20207;-79
2023/03/14 08:56:31;;;;;;;0.10;0.10;;;;;;;;;;5014647;28;20295;-78
2023/03/14 08:58:57;;;;;;;0.10;0.10;;;;;;;;;;5024770;28;20253;-80
2023/03/14 09:01:26;;;;;;;0.10;0.10;;;;;;;;;;5014458;28;20302;-79
2023/03/14 09:03:52;;;;;;;0.10;0.10;;;;;;;;;;5024830;28;20443;-79
2023/03/14 09:06:21;;;;;;;0.10;0.10;;;;;;;;;;5014507;28;20243;-78
2023/03/14 09:08:47;;;;;;;0.10;0.10;;;;;;;;;;5024860;28;20203;-78
2023/03/14 09:11:14;;;;;;;0.10;0.10;;;;;;;;;;5014749;28;20445;-78
2023/03/14 09:13:41;;;;;;;0.10;0.10;;;;;;;;;;5024459;28;20227;-78
2023/03/14 09:16:08;;;;;;;0.10;0.10;;;;;;;;;;5014755;28;20255;-78
2023/03/14 09:18:36;;;;;;;0.10;0.10;;;;;;;;;;5024999;28;20365;-78
2023/03/14 09:21:03;;;;;;;0.10;0.10;;;;;;;;;;5014000;28;20235;-78
2023/03/14 09:23:30;;;;;;;0.10;0.10;;;;;;;;;;5025190;28;20213;-78
2023/03/14 09:25:56;;;;;;;0.10;0.10;;;;;;;;;;5014852;28;20503;-77
2023/03/14 09:28:23;;;;;;;0.10;0.10;;;;;;;;;;5025323;28;20213;-77
2023/03/14 09:30:49;;;;;;;0.10;0.10;;;;;;;;;;5015494;28;20336;-78
2023/03/14 09:33:16;;;;;;;0.10;0.10;;;;;;;;;;5025022;28;20207;-76
2023/03/14 09:35:43;;;;;;;0.10;0.10;;;;;;;;;;5015181;28;20277;-78
2023/03/14 09:38:10;;;;;;;0.20;0.20;;;;;;;;;;5023865;28;20208;-79
2023/03/14 09:40:37;;;;;;;0.10;0.10;;;;;;;;;;5014559;28;20251;-79
2023/03/14 09:43:04;;;;;;;0.10;0.10;;;;;;;;;;5023953;28;20283;-77
2023/03/14 09:45:32;;;;;;;0.10;0.10;;;;;;;;;;5014122;28;20336;-78
2023/03/14 09:47:59;;;;;;;0.10;0.10;;;;;;;;;;5023496;28;20278;-77
2023/03/14 09:50:27;;;;;;;0.10;0.10;;;;;;;;;;5014682;28;20244;-77
2023/03/14 09:52:57;;;;;;;0.10;0.10;;;;;;;;;;5023723;28;20240;-76
2023/03/14 09:55:24;;;;;;;0.10;0.10;;;;;;;;;;5014086;28;20298;-77
2023/03/14 09:57:51;;;;;;;0.10;0.10;;;;;;;;;;5023094;28;20201;-77
2023/03/14 10:00:19;;;;;;;0.10;0.10;;;;;;;;;;5013927;28;20216;-78
2023/03/14 10:02:48;;;;;;;0.00;0.00;;;;;;;;;;5023110;28;20223;-78
2023/03/14 10:05:15;;;;;;;0.10;0.10;;;;;;;;;;5013838;28;20211;-78
2023/03/14 10:07:42;;;;;;;0.10;0.10;;;;;;;;;;5024214;28;20515;-78
2023/03/14 10:10:14;;;;;;;0.10;0.10;;;;;;;;;;5015822;28;20203;-78
2023/03/14 10:12:41;;;;;;;0.10;0.10;;;;;;;;;;5023181;28;20204;-78
2023/03/14 10:15:09;;;;;;;0.10;0.10;;;;;;;;;;5018322;28;20214;-78
2023/03/14 10:17:39;;;;;;;0.10;0.10;;;;;;;;;;5023106;28;20217;-78
2023/03/14 10:20:06;;;;;;;0.10;0.10;;;;;;;;;;5024385;28;20422;-78
2023/03/14 10:22:33;;;;;;;0.20;0.20;;;;;;;;;;4996822;28;20231;-78
2023/03/14 10:25:02;;;;;;;0.10;0.10;;;;;;;;;;5024967;28;20431;-79
2023/03/14 10:27:31;;;;;;;0.10;0.10;;;;;;;;;;5014065;28;20245;-78
2023/03/14 10:29:59;;;;;;;0.10;0.10;;;;;;;;;;5024674;28;20207;-77
2023/03/14 10:32:29;;;;;;;0.10;0.10;;;;;;;;;;5014022;28;20238;-78
2023/03/14 10:35:07;;;;;;;0.10;0.10;;;;;;;;;;5028879;28;20200;-77
2023/03/14 10:37:33;;;;;;;0.10;0.10;;;;;;;;;;5000354;28;20438;-78
2023/03/14 10:40:05;;;;;;;0.10;0.10;;;;;;;;;;5027663;28;20202;-78
2023/03/14 10:42:34;;;;;;;0.10;0.10;;;;;;;;;;5000576;28;20247;-78
2023/03/14 10:45:02;;;;;;;0.10;0.10;;;;;;;;;;5027804;28;20489;-77
2023/03/14 10:47:29;;;;;;;0.10;0.10;;;;;;;;;;5016835;28;20248;-77
2023/03/14 10:49:56;;;;;;;0.10;0.10;;;;;;;;;;5027939;28;20199;-77
2023/03/14 10:52:23;;;;;;;0.10;0.10;;;;;;;;;;5016623;28;20310;-78
2023/03/14 10:54:54;;;;;;;0.10;0.10;;;;;;;;;;5028014;28;20206;-77
2023/03/14 10:57:21;;;;;;;0.10;0.10;;;;;;;;;;5016944;28;20336;-77
2023/03/14 10:59:49;;;;;;;0.10;0.10;;;;;;;;;;5028172;28;20466;-78
2023/03/14 11:02:29;;;;;;;0.10;0.10;;;;;;;;;;5016562;28;20315;-77
2023/03/14 11:05:04;;;;;;;0.10;0.10;;;;;;;;;;5028502;28;20396;-78
2023/03/14 11:07:33;;;;;;;0.10;0.10;;;;;;;;;;5016049;28;20247;-78
2023/03/14 11:10:03;;;;;;;0.10;0.10;;;;;;;;;;5026863;28;20234;-77
2023/03/14 11:12:40;;;;;;;0.10;0.10;;;;;;;;;;5015959;28;20239;-80
2023/03/14 11:15:11;;;;;;;0.10;0.10;;;;;;;;;;5026306;28;20281;-80
2023/03/14 11:17:40;;;;;;;0.10;0.10;;;;;;;;;;5025831;28;20241;-79
2023/03/14 11:20:15;;;;;;;0.10;0.10;;;;;;;;;;5027771;28;20383;-78
2023/03/14 11:22:44;;;;;;;0.10;0.10;;;;;;;;;;5025870;28;20458;-79
2023/03/14 11:25:15;;;;;;;0.10;0.10;;;;;;;;;;5018023;28;20206;-79
2023/03/14 11:27:43;;;;;;;0.10;0.10;;;;;;;;;;5027338;28;20228;-80
2023/03/14 11:30:17;;;;;;;0.10;0.10;;;;;;;;;;5017044;28;20208;-79
2023/03/14 11:32:45;;;;;;;0.10;0.10;;;;;;;;;;5026215;28;20192;-79
2023/03/14 11:35:17;;;;;;;0.10;0.10;;;;;;;;;;5016770;28;20255;-78
2023/03/14 11:37:47;;;;;;;0.10;0.10;;;;;;;;;;5025567;28;20227;-78
2023/03/14 11:40:15;;;;;;;0.10;0.10;;;;;;;;;;5016330;28;20206;-79
2023/03/14 11:42:43;;;;;;;0.10;0.10;;;;;;;;;;5025686;28;20462;-79
2023/03/14 11:45:15;;;;;;;0.10;0.10;;;;;;;;;;5015899;28;20390;-79
2023/03/14 11:47:43;;;;;;;0.10;0.10;;;;;;;;;;5025853;28;20251;-78
2023/03/14 11:50:14;;;;;;;0.10;0.10;;;;;;;;;;5016586;28;20276;-79
2023/03/14 11:52:45;;;;;;;0.10;0.10;;;;;;;;;;5025329;28;20191;-79
2023/03/14 11:55:13;;;;;;;0.10;0.10;;;;;;;;;;5016361;28;20422;-80
2023/03/14 11:57:40;;;;;;;0.10;0.10;;;;;;;;;;5026551;28;20222;-80
2023/03/14 12:00:14;;;;;;;0.20;0.20;;;;;;;;;;5026315;28;20246;-78
2023/03/14 12:02:47;;;;;;;0.10;0.10;;;;;;;;;;4999025;28;20598;-79
2023/03/14 12:05:43;;;;;;;0.10;0.10;;;;;;;;;;5016635;28;20210;-79
2023/03/14 12:08:40;;;;;;;0.10;0.10;;;;;;;;;;5025937;28;20233;-79
2023/03/14 12:11:11;;;;;;;0.10;0.10;;;;;;;;;;4956697;28;20458;-80
2023/03/14 12:13:38;;;;;;;0.10;0.10;;;;;;;;;;5013896;28;20230;-80
2023/03/14 12:16:06;;;;;;;0.10;0.10;;;;;;;;;;5016294;28;20448;-79
2023/03/14 12:18:37;;;;;;;0.10;0.10;;;;;;;;;;5026118;28;20278;-79
2023/03/14 12:21:05;;;;;;;0.10;0.10;;;;;;;;;;5016096;28;20300;-79
2023/03/14 12:23:36;;;;;;;0.10;0.10;;;;;;;;;;5025860;28;20558;-80
2023/03/14 12:26:14;;;;;;;0.17;0.17;;;;;;;;;;5015905;28;20278;-79
2023/03/14 12:28:43;;;;;;;0.10;0.10;;;;;;;;;;5026079;28;20208;-80
2023/03/14 12:31:30;;;;;;;0.10;0.10;;;;;;;;;;5015925;28;20280;-80
2023/03/14 12:34:04;;;;;;;0.10;0.10;;;;;;;;;;5025041;28;20215;-80
2023/03/14 12:36:49;;;;;;;0.10;0.10;;;;;;;;;;5015534;28;20252;-79
2023/03/14 12:39:21;;;;;;;0.10;0.10;;;;;;;;;;5025942;28;20210;-79
2023/03/14 12:41:52;;;;;;;0.10;0.10;;;;;;;;;;5014938;28;20248;-79
2023/03/14 12:44:37;;;;;;;0.10;0.10;;;;;;;;;;5026132;28;20263;-79
2023/03/14 12:47:15;;;;;;;0.00;0.00;;;;;;;;;;5014812;28;20246;-79
2023/03/14 12:49:43;;;;;;;0.10;0.10;;;;;;;;;;5026289;28;20433;-79
2023/03/14 12:52:14;;;;;;;0.10;0.10;;;;;;;;;;5014736;28;20242;-78
2023/03/14 12:54:43;;;;;;;0.20;0.20;;;;;;;;;;5025700;28;20228;-79
2023/03/14 12:57:33;;;;;;;0.10;0.10;;;;;;;;;;5013105;28;20320;-78
2023/03/14 13:00:00;;;;;;;0.10;0.10;;;;;;;;;;5025651;28;20214;-79
2023/03/14 13:02:28;;;;;;;0.10;0.10;;;;;;;;;;5014402;28;20266;-77
2023/03/14 13:05:04;;;;;;;0.10;0.10;;;;;;;;;;5025497;28;20193;-80
2023/03/14 13:07:35;;;;;;;0.10;0.10;;;;;;;;;;5014539;28;20271;-78
2023/03/14 13:10:04;;;;;;;0.10;0.10;;;;;;;;;;5025223;28;20389;-78
2023/03/14 13:12:35;;;;;;;0.10;0.10;;;;;;;;;;5013883;28;20575;-79
2023/03/14 13:15:02;;;;;;;0.10;0.10;;;;;;;;;;5024814;28;20238;-78
2023/03/14 13:17:31;;;;;;;0.10;0.10;;;;;;;;;;5013581;28;20443;-78
2023/03/14 13:20:01;;;;;;;0.10;0.10;;;;;;;;;;5024620;28;20215;-78
2023/03/14 13:22:28;;;;;;;0.10;0.10;;;;;;;;;;5013599;28;20250;-79
2023/03/14 13:25:01;;;;;;;0.10;0.10;;;;;;;;;;5025707;28;20205;-78
2023/03/14 13:27:30;;;;;;;0.10;0.10;;;;;;;;;;5014732;28;20249;-79
2023/03/14 13:29:57;;;;;;;0.10;0.10;;;;;;;;;;5024983;28;20215;-78
2023/03/14 13:32:27;;;;;;;0.10;0.10;;;;;;;;;;5013793;28;20264;-79
2023/03/14 13:34:56;;;;;;;0.10;0.10;;;;;;;;;;5024541;28;20277;-77
2023/03/14 13:37:25;;;;;;;0.10;0.10;;;;;;;;;;5013766;28;20305;-78
2023/03/14 13:39:52;;;;;;;0.10;0.10;;;;;;;;;;5024179;28;20279;-78
2023/03/14 13:42:18;;;;;;;0.10;0.10;;;;;;;;;;5013351;28;20250;-78
2023/03/14 13:44:45;;;;;;;0.10;0.10;;;;;;;;;;5024349;28;20206;-78
2023/03/14 13:47:14;;;;;;;0.10;0.10;;;;;;;;;;5013259;28;20254;-78
2023/03/14 13:49:40;;;;;;;0.10;0.10;;;;;;;;;;5023999;28;20211;-77
2023/03/14 13:52:21;;;;;;;0.00;0.00;;;;;;;;;;5013066;28;20306;-78
2023/03/14 13:54:53;;;;;;;0.10;0.10;;;;;;;;;;5024025;28;20210;-77
2023/03/14 13:57:19;;;;;;;0.10;0.10;;;;;;;;;;5014507;28;20255;-78
2023/03/14 13:59:58;;;;;;;0.10;0.10;;;;;;;;;;5025073;28;20234;-77
2023/03/14 14:02:25;;;;;;;0.20;0.20;;;;;;;;;;5014206;28;20249;-77
2023/03/14 14:04:52;;;;;;;0.07;0.07;;;;;;;;;;5025175;28;20232;-77
2023/03/14 14:07:18;;;;;;;0.10;0.10;;;;;;;;;;5013963;28;20268;-78
2023/03/14 14:09:47;;;;;;;0.10;0.10;;;;;;;;;;5024079;28;20215;-77
2023/03/14 14:12:16;;;;;;;0.10;0.10;;;;;;;;;;5012951;28;20241;-78
2023/03/14 14:14:44;;;;;;;0.10;0.10;;;;;;;;;;5023755;28;20274;-78
2023/03/14 14:17:11;;;;;;;0.10;0.10;;;;;;;;;;5013025;28;20249;-78
2023/03/14 14:19:40;;;;;;;0.10;0.10;;;;;;;;;;5023993;28;20231;-78
2023/03/14 14:22:07;;;;;;;0.10;0.10;;;;;;;;;;5012937;28;20263;-78
2023/03/14 14:24:34;;;;;;;0.10;0.10;;;;;;;;;;5024196;28;20543;-78
2023/03/14 14:27:02;;;;;;;0.10;0.10;;;;;;;;;;5012955;28;20311;-78
2023/03/14 14:29:30;;;;;;;0.00;0.00;;;;;;;;;;5024199;28;20205;-77
2023/03/14 14:32:01;;;;;;;0.10;0.10;;;;;;;;;;5013234;28;20261;-78
2023/03/14 14:34:27;;;;;;;0.10;0.10;;;;;;;;;;5023907;28;20222;-78
2023/03/14 14:36:54;;;;;;;0.10;0.10;;;;;;;;;;5013266;28;20509;-78
2023/03/14 14:39:22;;;;;;;0.10;0.10;;;;;;;;;;5023510;28;20205;-78
2023/03/14 14:41:49;;;;;;;0.10;0.10;;;;;;;;;;5012641;28;20254;-78
2023/03/14 14:44:18;;;;;;;0.10;0.10;;;;;;;;;;5023607;28;20237;-78
2023/03/14 14:46:46;;;;;;;0.10;0.10;;;;;;;;;;5012791;28;20267;-78
2023/03/14 14:49:14;;;;;;;0.10;0.10;;;;;;;;;;5024191;28;20209;-78